Time;durP1;ratioP1;P1;durP2;ratioP2;P2;SDS_P1;SDS_P2;PMS_P1;PMS_P2;Temp;Humidity;BMP_temperature;BMP_pressure;BME280_temperature;BME280_humidity;BME280_pressure;Samples;Min_cycle;Max_cycle;Signal;HPM_P1;HPM_P2
2021/07/05 00:02:32;;;;;;;4.78;3.00;;;;;;;;;;8320554;28;20070;-70
2021/07/05 00:06:39;;;;;;;4.22;2.83;;;;;;;;;;8300407;28;20360;-70
2021/07/05 00:10:44;;;;;;;4.93;2.92;;;;;;;;;;8292376;28;20390;-70
2021/07/05 00:14:50;;;;;;;5.05;3.17;;;;;;;;;;8294129;28;20343;-70
2021/07/05 00:18:55;;;;;;;4.18;3.33;;;;;;;;;;8293225;28;20072;-69
2021/07/05 00:23:01;;;;;;;3.35;2.67;;;;;;;;;;8292397;28;20390;-70
2021/07/05 00:27:06;;;;;;;4.15;3.40;;;;;;;;;;8293378;28;20470;-69
2021/07/05 00:31:11;;;;;;;6.95;3.17;;;;;;;;;;8292038;28;20037;-71
2021/07/05 00:35:19;;;;;;;4.22;3.13;;;;;;;;;;8291919;28;20052;-71
2021/07/05 00:39:24;;;;;;;5.32;3.30;;;;;;;;;;8275355;28;20044;-70
2021/07/05 00:43:30;;;;;;;5.03;3.20;;;;;;;;;;8291605;28;20394;-71
2021/07/05 00:47:36;;;;;;;3.90;2.92;;;;;;;;;;8291476;28;20371;-70
2021/07/05 00:51:42;;;;;;;5.70;3.53;;;;;;;;;;8290961;28;20487;-71
2021/07/05 00:55:48;;;;;;;5.88;3.72;;;;;;;;;;8274245;28;20394;-71
2021/07/05 00:59:58;;;;;;;7.22;3.38;;;;;;;;;;8289941;28;20464;-70
2021/07/05 01:04:03;;;;;;;6.45;3.83;;;;;;;;;;8291976;28;20533;-70
2021/07/05 01:08:09;;;;;;;5.53;3.60;;;;;;;;;;8290249;28;20451;-70
2021/07/05 01:12:14;;;;;;;5.57;4.25;;;;;;;;;;8274172;28;20489;-70
2021/07/05 01:16:20;;;;;;;4.65;3.28;;;;;;;;;;8289551;28;20490;-70
2021/07/05 01:20:29;;;;;;;7.00;3.83;;;;;;;;;;8288960;28;20107;-70
2021/07/05 01:24:35;;;;;;;3.90;3.38;;;;;;;;;;8290758;28;20375;-70
2021/07/05 01:28:40;;;;;;;6.82;3.38;;;;;;;;;;8290846;28;20476;-70
2021/07/05 01:32:48;;;;;;;4.85;3.75;;;;;;;;;;8289315;28;20398;-70
2021/07/05 01:36:53;;;;;;;8.93;3.35;;;;;;;;;;8289388;28;20370;-71
2021/07/05 01:41:03;;;;;;;4.47;3.47;;;;;;;;;;8289467;28;20067;-71
2021/07/05 01:45:09;;;;;;;3.88;3.25;;;;;;;;;;8288456;28;20472;-71
2021/07/05 01:49:15;;;;;;;4.13;3.22;;;;;;;;;;8289964;28;20344;-70
2021/07/05 01:53:21;;;;;;;4.55;3.50;;;;;;;;;;8290490;28;20459;-70
2021/07/05 01:57:26;;;;;;;4.60;3.80;;;;;;;;;;8288882;28;20044;-71
2021/07/05 02:01:32;;;;;;;5.90;3.63;;;;;;;;;;8289903;28;20410;-70
2021/07/05 02:05:38;;;;;;;5.88;3.33;;;;;;;;;;8287211;28;20360;-71
2021/07/05 02:09:45;;;;;;;5.88;3.75;;;;;;;;;;8288984;28;20490;-71
2021/07/05 02:13:51;;;;;;;5.13;3.40;;;;;;;;;;8289408;28;20049;-70
2021/07/05 02:17:57;;;;;;;5.65;4.03;;;;;;;;;;8288519;28;20353;-70
2021/07/05 02:22:04;;;;;;;5.68;3.80;;;;;;;;;;8289741;28;20037;-70
2021/07/05 02:26:09;;;;;;;9.65;4.00;;;;;;;;;;8290028;28;20075;-70
2021/07/05 02:30:18;;;;;;;5.97;3.30;;;;;;;;;;8289254;28;20468;-70
2021/07/05 02:34:24;;;;;;;7.50;3.30;;;;;;;;;;8287170;28;20471;-71
2021/07/05 02:38:31;;;;;;;4.05;3.13;;;;;;;;;;8288479;28;20360;-71
2021/07/05 02:42:37;;;;;;;4.32;3.17;;;;;;;;;;8289382;28;20460;-71
2021/07/05 02:46:43;;;;;;;3.95;3.05;;;;;;;;;;8289289;28;20052;-70
2021/07/05 02:50:55;;;;;;;3.78;3.15;;;;;;;;;;8289502;28;20056;-70
2021/07/05 02:55:00;;;;;;;3.35;2.90;;;;;;;;;;8289749;28;20375;-70
2021/07/05 02:59:06;;;;;;;4.78;3.10;;;;;;;;;;8290269;28;20434;-70
2021/07/05 03:03:12;;;;;;;4.20;3.13;;;;;;;;;;8289719;28;20044;-70
2021/07/05 03:07:18;;;;;;;5.00;3.45;;;;;;;;;;8288858;28;20467;-70
2021/07/05 03:11:23;;;;;;;8.23;3.53;;;;;;;;;;8288721;28;20379;-70
2021/07/05 03:15:28;;;;;;;3.78;3.00;;;;;;;;;;8288696;28;20347;-71
2021/07/05 03:19:33;;;;;;;11.32;3.65;;;;;;;;;;8304253;28;20368;-70
2021/07/05 03:23:38;;;;;;;7.75;4.22;;;;;;;;;;8290435;28;20398;-70
2021/07/05 03:27:44;;;;;;;9.10;4.85;;;;;;;;;;8295035;28;20068;-70
2021/07/05 03:31:50;;;;;;;9.50;4.93;;;;;;;;;;8292687;28;20074;-71
2021/07/05 03:35:55;;;;;;;11.93;5.88;;;;;;;;;;8294261;28;20468;-72
2021/07/05 03:40:01;;;;;;;12.50;5.18;;;;;;;;;;8311226;28;20340;-70
2021/07/05 03:44:06;;;;;;;9.70;5.00;;;;;;;;;;8294221;28;20052;-70
2021/07/05 03:48:12;;;;;;;8.60;4.50;;;;;;;;;;8294198;28;20498;-70
2021/07/05 03:52:17;;;;;;;8.27;4.45;;;;;;;;;;8292882;28;20036;-70
2021/07/05 03:56:23;;;;;;;10.48;4.15;;;;;;;;;;8295655;28;20071;-70
2021/07/05 04:00:36;;;;;;;6.80;4.00;;;;;;;;;;8294041;28;20457;-70
2021/07/05 04:04:42;;;;;;;9.00;4.55;;;;;;;;;;8295221;28;20367;-70
2021/07/05 04:08:47;;;;;;;6.28;4.13;;;;;;;;;;8293783;28;20466;-70
2021/07/05 04:12:53;;;;;;;5.05;4.10;;;;;;;;;;8291935;28;20516;-70
2021/07/05 04:16:58;;;;;;;6.55;4.13;;;;;;;;;;8291953;28;20456;-70
2021/07/05 04:21:04;;;;;;;4.65;4.07;;;;;;;;;;8290618;28;20374;-70
2021/07/05 04:25:12;;;;;;;5.20;3.78;;;;;;;;;;8290947;28;20351;-71
2021/07/05 04:29:18;;;;;;;6.60;4.20;;;;;;;;;;8291115;28;20405;-70
2021/07/05 04:33:24;;;;;;;6.18;4.35;;;;;;;;;;8291509;28;20459;-70
2021/07/05 04:37:29;;;;;;;5.68;4.03;;;;;;;;;;8274145;28;20471;-70
2021/07/05 04:41:35;;;;;;;7.55;4.35;;;;;;;;;;8292001;28;20064;-70
2021/07/05 04:45:43;;;;;;;8.07;4.57;;;;;;;;;;8293749;28;20056;-70
2021/07/05 04:49:49;;;;;;;5.97;4.28;;;;;;;;;;8292028;28;20380;-71
2021/07/05 04:53:54;;;;;;;8.45;4.63;;;;;;;;;;8291897;28;20371;-70
2021/07/05 04:58:01;;;;;;;10.85;5.32;;;;;;;;;;8291072;28;20374;-70
2021/07/05 05:02:07;;;;;;;8.38;4.63;;;;;;;;;;8292052;28;20041;-69
2021/07/05 05:06:12;;;;;;;10.90;5.20;;;;;;;;;;8293582;28;20489;-69
2021/07/05 05:10:18;;;;;;;10.50;4.50;;;;;;;;;;8291814;28;20467;-69
2021/07/05 05:14:24;;;;;;;9.63;5.40;;;;;;;;;;8289647;28;20451;-69
2021/07/05 05:18:29;;;;;;;9.07;4.45;;;;;;;;;;8290230;28;20367;-69
2021/07/05 05:22:34;;;;;;;9.70;5.32;;;;;;;;;;8289824;28;20063;-69
2021/07/05 05:26:39;;;;;;;7.47;4.40;;;;;;;;;;8290643;28;20480;-70
2021/07/05 05:30:45;;;;;;;8.85;5.03;;;;;;;;;;8290696;28;20498;-69
2021/07/05 05:34:49;;;;;;;11.65;5.93;;;;;;;;;;8290682;28;20044;-70
2021/07/05 05:38:55;;;;;;;16.30;5.53;;;;;;;;;;8289964;28;20337;-70
2021/07/05 05:43:00;;;;;;;8.48;5.25;;;;;;;;;;8290797;28;20455;-70
2021/07/05 05:47:05;;;;;;;9.45;6.30;;;;;;;;;;8288219;28;20352;-70
2021/07/05 05:51:11;;;;;;;9.82;6.22;;;;;;;;;;8291340;28;20044;-69
2021/07/05 05:55:15;;;;;;;13.05;7.65;;;;;;;;;;8290326;28;20037;-70
2021/07/05 05:59:21;;;;;;;9.02;5.80;;;;;;;;;;8289221;28;20052;-70
2021/07/05 06:03:26;;;;;;;10.32;6.35;;;;;;;;;;8289360;28;20360;-70
2021/07/05 06:07:32;;;;;;;11.25;6.43;;;;;;;;;;8291877;28;20056;-70
2021/07/05 06:11:39;;;;;;;14.68;6.13;;;;;;;;;;8290184;28;20339;-71
2021/07/05 06:15:45;;;;;;;7.85;5.72;;;;;;;;;;8289941;28;20401;-71
2021/07/05 06:19:51;;;;;;;10.18;5.80;;;;;;;;;;8290229;28;20486;-68
2021/07/05 06:23:57;;;;;;;11.10;6.30;;;;;;;;;;8289114;28;20378;-68
2021/07/05 06:28:02;;;;;;;16.00;5.70;;;;;;;;;;8288178;28;20371;-68
2021/07/05 06:32:08;;;;;;;7.55;5.18;;;;;;;;;;8291076;28;20063;-67
2021/07/05 06:36:14;;;;;;;9.13;5.88;;;;;;;;;;8289927;28;20409;-68
2021/07/05 06:40:18;;;;;;;8.50;5.40;;;;;;;;;;8288258;28;20476;-68
2021/07/05 06:44:23;;;;;;;11.18;5.55;;;;;;;;;;8272553;28;20338;-69
2021/07/05 06:48:28;;;;;;;14.65;6.05;;;;;;;;;;8288124;28;20525;-68
2021/07/05 06:52:34;;;;;;;12.27;5.80;;;;;;;;;;8287464;28;20483;-68
2021/07/05 06:56:39;;;;;;;17.00;7.00;;;;;;;;;;8289040;28;20402;-68
2021/07/05 07:00:46;;;;;;;13.73;6.22;;;;;;;;;;8294784;28;20064;-68
2021/07/05 07:04:51;;;;;;;14.32;6.07;;;;;;;;;;8297653;28;20367;-68
2021/07/05 07:08:57;;;;;;;8.52;5.20;;;;;;;;;;8296099;28;20471;-68
2021/07/05 07:13:01;;;;;;;9.50;4.68;;;;;;;;;;8297892;28;20080;-68
2021/07/05 07:17:25;;;;;;;9.05;5.15;;;;;;;;;;8296582;28;20467;-68
2021/07/05 07:21:29;;;;;;;7.28;3.85;;;;;;;;;;8295072;28;20378;-68
2021/07/05 07:25:35;;;;;;;5.95;3.58;;;;;;;;;;8295144;28;20463;-68
2021/07/05 07:29:40;;;;;;;7.50;2.70;;;;;;;;;;8295378;28;20397;-68
2021/07/05 07:33:45;;;;;;;8.80;3.13;;;;;;;;;;8296698;28;20045;-69
2021/07/05 07:37:51;;;;;;;6.18;3.33;;;;;;;;;;8326007;28;20508;-68
2021/07/05 07:41:56;;;;;;;4.82;2.78;;;;;;;;;;8327400;28;20467;-68
2021/07/05 07:46:02;;;;;;;6.07;2.80;;;;;;;;;;8325643;28;20372;-69
2021/07/05 07:50:10;;;;;;;4.85;2.30;;;;;;;;;;8324980;28;20535;-68
2021/07/05 07:54:17;;;;;;;4.97;2.60;;;;;;;;;;8325298;28;20349;-68
2021/07/05 07:58:21;;;;;;;2.90;2.30;;;;;;;;;;8328695;28;20479;-68
2021/07/05 08:02:26;;;;;;;2.17;1.80;;;;;;;;;;8324667;28;20486;-69
2021/07/05 08:06:32;;;;;;;3.35;2.13;;;;;;;;;;8327271;28;20366;-68
2021/07/05 08:10:38;;;;;;;3.88;2.20;;;;;;;;;;8325923;28;20409;-68
2021/07/05 08:14:43;;;;;;;3.60;2.60;;;;;;;;;;8328668;28;20409;-69
2021/07/05 08:18:48;;;;;;;3.05;2.47;;;;;;;;;;8325739;28;20387;-69
2021/07/05 08:22:56;;;;;;;3.72;2.35;;;;;;;;;;8324889;28;20463;-69
2021/07/05 08:27:01;;;;;;;4.82;2.30;;;;;;;;;;8325696;28;20329;-69
2021/07/05 08:31:07;;;;;;;3.42;2.10;;;;;;;;;;8323781;28;20040;-70
2021/07/05 08:35:14;;;;;;;3.75;2.38;;;;;;;;;;8325373;28;20074;-70
2021/07/05 08:39:20;;;;;;;2.83;1.98;;;;;;;;;;8326877;28;20374;-69
2021/07/05 08:43:28;;;;;;;3.17;2.35;;;;;;;;;;8325821;28;20036;-69
2021/07/05 08:47:40;;;;;;;3.95;2.40;;;;;;;;;;8323487;28;20462;-68
2021/07/05 08:51:46;;;;;;;5.35;2.38;;;;;;;;;;8326541;28;20059;-69
2021/07/05 08:55:52;;;;;;;4.65;2.65;;;;;;;;;;8325290;28;20474;-70
2021/07/05 08:59:58;;;;;;;3.88;2.35;;;;;;;;;;8326298;28;20378;-69
2021/07/05 09:04:04;;;;;;;3.63;2.50;;;;;;;;;;8324085;28;20335;-70
2021/07/05 09:08:12;;;;;;;2.85;2.22;;;;;;;;;;8324573;28;20524;-69
2021/07/05 09:12:17;;;;;;;2.90;2.25;;;;;;;;;;8324848;28;20340;-70
2021/07/05 09:16:37;;;;;;;3.40;2.33;;;;;;;;;;8326179;28;20300;-70
2021/07/05 09:20:42;;;;;;;2.15;1.80;;;;;;;;;;8322592;28;20382;-70
2021/07/05 09:24:47;;;;;;;3.40;2.30;;;;;;;;;;8324875;28;20349;-71
2021/07/05 09:28:54;;;;;;;3.33;1.98;;;;;;;;;;8323091;28;20350;-69
2021/07/05 09:33:20;;;;;;;5.70;2.10;;;;;;;;;;8322265;28;20336;-70
2021/07/05 09:37:29;;;;;;;3.65;2.72;;;;;;;;;;8324698;28;20052;-70
2021/07/05 09:41:34;;;;;;;3.97;2.60;;;;;;;;;;8323300;28;20479;-69
2021/07/05 09:45:40;;;;;;;6.03;3.08;;;;;;;;;;8321067;28;20374;-70
2021/07/05 09:49:48;;;;;;;6.77;2.77;;;;;;;;;;8324287;28;20482;-69
2021/07/05 09:53:54;;;;;;;7.47;3.13;;;;;;;;;;8322483;28;20467;-69
2021/07/05 09:58:07;;;;;;;3.97;2.45;;;;;;;;;;8322099;28;20358;-70
2021/07/05 10:02:12;;;;;;;10.25;3.75;;;;;;;;;;8322552;28;20364;-69
2021/07/05 10:06:20;;;;;;;10.00;3.38;;;;;;;;;;8323070;28;20501;-69
2021/07/05 10:10:25;;;;;;;9.30;3.78;;;;;;;;;;8321145;28;20485;-69
2021/07/05 10:14:31;;;;;;;8.55;3.10;;;;;;;;;;8322907;28;20467;-70
2021/07/05 10:18:36;;;;;;;5.00;3.28;;;;;;;;;;8322389;28;20048;-70
2021/07/05 10:22:44;;;;;;;6.95;2.50;;;;;;;;;;8322109;28;20490;-70
2021/07/05 10:26:49;;;;;;;12.85;2.65;;;;;;;;;;8320554;28;20404;-69
2021/07/05 10:30:55;;;;;;;4.60;2.78;;;;;;;;;;8321930;28;20374;-69
2021/07/05 10:35:00;;;;;;;4.03;2.50;;;;;;;;;;8327296;28;20355;-70
2021/07/05 10:39:09;;;;;;;3.33;2.20;;;;;;;;;;8328954;28;20378;-69
2021/07/05 10:43:21;;;;;;;3.17;1.90;;;;;;;;;;8328804;28;20434;-70
2021/07/05 10:47:42;;;;;;;2.40;2.05;;;;;;;;;;8328298;28;20451;-70
2021/07/05 10:51:49;;;;;;;2.47;1.35;;;;;;;;;;8328776;28;20482;-70
2021/07/05 10:55:54;;;;;;;2.78;2.05;;;;;;;;;;8328433;28;20493;-70
2021/07/05 11:00:18;;;;;;;2.30;1.77;;;;;;;;;;8326734;28;20480;-71
2021/07/05 11:04:29;;;;;;;5.40;1.70;;;;;;;;;;8325908;28;20421;-71
2021/07/05 11:08:51;;;;;;;6.65;1.98;;;;;;;;;;8326953;28;20355;-69
2021/07/05 11:13:05;;;;;;;3.83;1.83;;;;;;;;;;8330089;28;20366;-69
2021/07/05 11:17:17;;;;;;;3.28;1.85;;;;;;;;;;8327420;28;20459;-70
2021/07/05 11:21:23;;;;;;;3.83;1.77;;;;;;;;;;8328185;28;20363;-71
2021/07/05 11:25:28;;;;;;;2.78;2.22;;;;;;;;;;8329320;28;20067;-70
2021/07/05 11:29:45;;;;;;;2.47;1.98;;;;;;;;;;8327065;28;20377;-69
2021/07/05 11:33:51;;;;;;;3.40;1.98;;;;;;;;;;8325782;28;20491;-70
2021/07/05 11:38:05;;;;;;;6.30;1.98;;;;;;;;;;8327495;28;20492;-70
2021/07/05 11:42:12;;;;;;;4.18;2.00;;;;;;;;;;8327630;28;20350;-70
2021/07/05 11:46:38;;;;;;;6.03;2.70;;;;;;;;;;8326241;28;20359;-70
2021/07/05 11:50:45;;;;;;;5.80;2.50;;;;;;;;;;8315043;28;20498;-69
2021/07/05 11:55:00;;;;;;;6.30;2.60;;;;;;;;;;8328110;28;20386;-69
2021/07/05 11:59:11;;;;;;;5.90;2.92;;;;;;;;;;8327167;28;20359;-68
2021/07/05 12:03:16;;;;;;;4.20;2.35;;;;;;;;;;8326471;28;20497;-69
2021/07/05 12:07:22;;;;;;;8.20;2.72;;;;;;;;;;8325657;28;20048;-69
2021/07/05 12:11:33;;;;;;;12.07;3.45;;;;;;;;;;8326956;28;20075;-69
2021/07/05 12:15:38;;;;;;;8.57;2.70;;;;;;;;;;8310279;28;20355;-70
2021/07/05 12:19:47;;;;;;;7.53;2.78;;;;;;;;;;8326163;28;20075;-68
2021/07/05 12:23:53;;;;;;;5.05;3.30;;;;;;;;;;8324652;28;20348;-70
2021/07/05 12:28:15;;;;;;;10.15;3.78;;;;;;;;;;8325038;28;20482;-69
2021/07/05 12:32:31;;;;;;;7.63;3.65;;;;;;;;;;8322542;28;20355;-69
2021/07/05 12:36:37;;;;;;;6.40;3.10;;;;;;;;;;8324495;28;20344;-71
2021/07/05 12:40:42;;;;;;;7.47;3.25;;;;;;;;;;8325175;28;20351;-69
2021/07/05 12:44:48;;;;;;;7.82;2.97;;;;;;;;;;8323761;28;20351;-70
2021/07/05 12:48:53;;;;;;;4.18;2.92;;;;;;;;;;8323107;28;20498;-70
2021/07/05 12:53:01;;;;;;;4.55;3.13;;;;;;;;;;8328481;28;20336;-70
2021/07/05 12:57:13;;;;;;;12.38;2.97;;;;;;;;;;8324190;28;20412;-70
2021/07/05 13:01:36;;;;;;;7.80;3.03;;;;;;;;;;8323950;28;20474;-70
2021/07/05 13:05:43;;;;;;;5.80;3.00;;;;;;;;;;8321870;28;20056;-69
2021/07/05 13:10:03;;;;;;;4.50;2.90;;;;;;;;;;8324895;28;20340;-71
2021/07/05 13:14:13;;;;;;;4.22;3.28;;;;;;;;;;8322272;28;20343;-70
2021/07/05 13:18:24;;;;;;;6.43;3.20;;;;;;;;;;8322072;28;20380;-70
2021/07/05 13:22:30;;;;;;;6.40;3.45;;;;;;;;;;8323752;28;20375;-70
2021/07/05 13:26:38;;;;;;;6.68;3.15;;;;;;;;;;8325332;28;20375;-69
2021/07/05 13:30:45;;;;;;;5.80;3.35;;;;;;;;;;8323057;28;20478;-70
2021/07/05 13:34:59;;;;;;;4.22;3.00;;;;;;;;;;8320584;28;20370;-69
2021/07/05 13:39:12;;;;;;;4.45;3.08;;;;;;;;;;8325169;28;20048;-69
2021/07/05 13:43:22;;;;;;;6.32;3.08;;;;;;;;;;8323256;28;20397;-70
2021/07/05 13:47:29;;;;;;;6.28;3.00;;;;;;;;;;8323592;28;20370;-71
2021/07/05 13:51:37;;;;;;;4.85;2.55;;;;;;;;;;8321765;28;20371;-70
2021/07/05 13:56:00;;;;;;;5.88;3.10;;;;;;;;;;8322787;28;20475;-69
2021/07/05 14:00:06;;;;;;;5.63;3.13;;;;;;;;;;8323479;28;20048;-70
2021/07/05 14:04:11;;;;;;;6.33;3.27;;;;;;;;;;8304888;28;20451;-69
2021/07/05 14:08:17;;;;;;;4.00;2.85;;;;;;;;;;8321353;28;20052;-70
2021/07/05 14:12:21;;;;;;;2.80;2.30;;;;;;;;;;8323283;28;20344;-70
2021/07/05 14:16:28;;;;;;;4.90;2.63;;;;;;;;;;8322486;28;20458;-69
2021/07/05 14:20:33;;;;;;;;;;;;;;;;;;8322444;28;20074;-70
2021/07/05 14:24:38;;;;;;;4.68;2.83;;;;;;;;;;8324896;28;20357;-69
2021/07/05 14:28:44;;;;;;;5.00;2.85;;;;;;;;;;8323124;28;20466;-70
2021/07/05 14:32:49;;;;;;;3.92;2.90;;;;;;;;;;8321339;28;20036;-69
2021/07/05 14:36:54;;;;;;;3.80;2.88;;;;;;;;;;8320800;28;20509;-69
2021/07/05 14:41:00;;;;;;;4.78;3.17;;;;;;;;;;8322079;28;20075;-69
2021/07/05 14:45:11;;;;;;;4.60;3.27;;;;;;;;;;8323393;28;20497;-70
2021/07/05 14:49:16;;;;;;;4.05;2.90;;;;;;;;;;8321542;28;20829;-69
2021/07/05 14:53:21;;;;;;;5.45;3.22;;;;;;;;;;8321258;28;20067;-70
2021/07/05 14:57:27;;;;;;;6.28;3.03;;;;;;;;;;8320116;28;20700;-69
2021/07/05 15:01:30;;;;;;;7.65;2.95;;;;;;;;;;8304078;28;20505;-70
2021/07/05 15:05:38;;;;;;;6.60;3.92;;;;;;;;;;8323731;28;20499;-70
2021/07/05 15:09:43;;;;;;;6.15;3.42;;;;;;;;;;8322756;28;20354;-70
2021/07/05 15:13:48;;;;;;;6.32;3.60;;;;;;;;;;8320646;28;20378;-69
2021/07/05 15:17:54;;;;;;;5.25;3.15;;;;;;;;;;8321061;28;20447;-70
2021/07/05 15:21:59;;;;;;;6.47;3.90;;;;;;;;;;8327632;28;20622;-69
2021/07/05 15:26:05;;;;;;;14.05;3.95;;;;;;;;;;8327445;28;20491;-69
2021/07/05 15:30:12;;;;;;;7.70;4.38;;;;;;;;;;8327965;28;20462;-68
2021/07/05 15:34:17;;;;;;;5.70;3.83;;;;;;;;;;8327582;28;20056;-69
2021/07/05 15:38:23;;;;;;;5.25;3.35;;;;;;;;;;8329464;28;20459;-70
2021/07/05 15:42:28;;;;;;;5.78;3.40;;;;;;;;;;8326724;28;20494;-68
2021/07/05 15:46:35;;;;;;;6.90;3.58;;;;;;;;;;8310365;28;20470;-69
2021/07/05 15:50:40;;;;;;;5.40;3.72;;;;;;;;;;8325374;28;20489;-70
2021/07/05 15:54:46;;;;;;;15.77;4.78;;;;;;;;;;8325630;28;20356;-69
2021/07/05 15:58:51;;;;;;;5.38;3.40;;;;;;;;;;8325707;28;20459;-69
2021/07/05 16:02:56;;;;;;;6.63;3.67;;;;;;;;;;8325873;28;20381;-69
2021/07/05 16:07:02;;;;;;;5.93;3.28;;;;;;;;;;8325467;28;20533;-69
2021/07/05 16:11:07;;;;;;;3.75;2.42;;;;;;;;;;8327383;28;20482;-69
2021/07/05 16:15:13;;;;;;;4.53;2.70;;;;;;;;;;8324970;28;20055;-69
2021/07/05 16:19:18;;;;;;;5.80;2.85;;;;;;;;;;8324120;28;20478;-70
2021/07/05 16:23:23;;;;;;;4.55;2.60;;;;;;;;;;8326180;28;20355;-69
2021/07/05 16:27:29;;;;;;;3.13;2.33;;;;;;;;;;8325962;28;20502;-70
2021/07/05 16:31:34;;;;;;;10.93;3.00;;;;;;;;;;8326247;28;20441;-70
2021/07/05 16:35:40;;;;;;;5.00;2.70;;;;;;;;;;8325398;28;20367;-70
2021/07/05 16:39:45;;;;;;;4.78;2.92;;;;;;;;;;8307214;28;20466;-69
2021/07/05 16:43:51;;;;;;;5.25;2.50;;;;;;;;;;8324593;28;20470;-69
2021/07/05 16:47:57;;;;;;;4.18;3.00;;;;;;;;;;8325585;28;20521;-70
2021/07/05 16:52:13;;;;;;;6.43;3.10;;;;;;;;;;8326900;28;20070;-69
2021/07/05 16:56:20;;;;;;;6.85;3.78;;;;;;;;;;8322992;28;20350;-70
2021/07/05 17:00:30;;;;;;;4.22;2.90;;;;;;;;;;8325092;28;20438;-70
2021/07/05 17:04:34;;;;;;;4.25;2.72;;;;;;;;;;8323751;28;20489;-70
2021/07/05 17:08:40;;;;;;;5.00;2.95;;;;;;;;;;8325736;28;20493;-69
2021/07/05 17:12:49;;;;;;;4.95;2.85;;;;;;;;;;8322590;28;20382;-70
2021/07/05 17:16:56;;;;;;;3.92;2.60;;;;;;;;;;8325437;28;20424;-69
2021/07/05 17:21:02;;;;;;;4.35;3.08;;;;;;;;;;8323383;28;20463;-69
2021/07/05 17:25:10;;;;;;;4.20;2.60;;;;;;;;;;8322686;28;20066;-69
2021/07/05 17:29:15;;;;;;;6.82;2.90;;;;;;;;;;8307467;28;20492;-70
2021/07/05 17:33:21;;;;;;;4.03;2.70;;;;;;;;;;8322468;28;20374;-70
2021/07/05 17:37:26;;;;;;;4.85;2.35;;;;;;;;;;8322695;28;20501;-70
2021/07/05 17:41:31;;;;;;;6.00;3.17;;;;;;;;;;8323145;28;20316;-70
2021/07/05 17:45:36;;;;;;;7.40;2.95;;;;;;;;;;8321333;28;20375;-69
2021/07/05 17:49:41;;;;;;;3.70;2.70;;;;;;;;;;8321800;28;20486;-69
2021/07/05 17:53:47;;;;;;;4.90;2.88;;;;;;;;;;8323801;28;20052;-70
2021/07/05 17:57:53;;;;;;;6.18;2.25;;;;;;;;;;8323021;28;20478;-69
2021/07/05 18:02:01;;;;;;;4.32;2.58;;;;;;;;;;8321851;28;20451;-70
2021/07/05 18:06:06;;;;;;;3.38;2.63;;;;;;;;;;8322002;28;20352;-69
2021/07/05 18:10:16;;;;;;;3.40;2.67;;;;;;;;;;8323625;28;20451;-69
2021/07/05 18:14:22;;;;;;;4.70;2.75;;;;;;;;;;8321087;28;20512;-70
2021/07/05 18:18:27;;;;;;;3.90;2.90;;;;;;;;;;8322485;28;20324;-69
2021/07/05 18:22:33;;;;;;;3.53;2.55;;;;;;;;;;8304413;28;20404;-72
2021/07/05 18:26:39;;;;;;;5.63;2.65;;;;;;;;;;8322381;28;20370;-72
2021/07/05 18:30:44;;;;;;;5.72;3.17;;;;;;;;;;8324877;28;20047;-70
2021/07/05 18:34:52;;;;;;;7.63;2.70;;;;;;;;;;8323063;28;20459;-71
2021/07/05 18:38:56;;;;;;;3.55;2.50;;;;;;;;;;8323012;28;20478;-71
2021/07/05 18:43:02;;;;;;;4.25;2.70;;;;;;;;;;8323656;28;20346;-71
2021/07/05 18:47:09;;;;;;;3.63;2.50;;;;;;;;;;8323385;28;20463;-71
2021/07/05 18:51:14;;;;;;;5.10;2.73;;;;;;;;;;8324022;28;20460;-72
2021/07/05 18:55:19;;;;;;;3.33;2.50;;;;;;;;;;8323835;28;20473;-71
2021/07/05 18:59:25;;;;;;;2.90;2.55;;;;;;;;;;8328983;28;20477;-69
2021/07/05 19:03:32;;;;;;;6.65;2.78;;;;;;;;;;8328151;28;20356;-69
2021/07/05 19:07:37;;;;;;;4.07;2.80;;;;;;;;;;8326361;28;20371;-71
2021/07/05 19:11:42;;;;;;;3.55;2.60;;;;;;;;;;8327559;28;20482;-72
2021/07/05 19:15:47;;;;;;;4.68;2.75;;;;;;;;;;8330655;28;20058;-71
2021/07/05 19:19:53;;;;;;;4.65;2.90;;;;;;;;;;8326080;28;20458;-70
2021/07/05 19:23:58;;;;;;;4.90;3.15;;;;;;;;;;8327334;28;20070;-71
2021/07/05 19:28:05;;;;;;;5.28;3.25;;;;;;;;;;8327795;28;20461;-70
2021/07/05 19:32:11;;;;;;;4.47;3.00;;;;;;;;;;8327794;28;20459;-70
2021/07/05 19:36:16;;;;;;;4.53;3.20;;;;;;;;;;8328228;28;20455;-73
2021/07/05 19:40:22;;;;;;;4.47;3.22;;;;;;;;;;8324182;28;20320;-70
2021/07/05 19:44:28;;;;;;;6.75;4.03;;;;;;;;;;8327459;28;20375;-69
2021/07/05 19:48:33;;;;;;;4.93;3.10;;;;;;;;;;8324994;28;20363;-72
2021/07/05 19:52:39;;;;;;;5.30;3.20;;;;;;;;;;8324443;28;20051;-71
2021/07/05 19:56:45;;;;;;;6.68;3.45;;;;;;;;;;8324946;28;20383;-71
2021/07/05 20:00:51;;;;;;;5.60;3.83;;;;;;;;;;8327526;28;20351;-71
2021/07/05 20:04:57;;;;;;;4.38;3.20;;;;;;;;;;8324492;28;20413;-72
2021/07/05 20:09:04;;;;;;;6.65;3.33;;;;;;;;;;8324546;28;20505;-71
2021/07/05 20:13:09;;;;;;;7.25;3.38;;;;;;;;;;8308181;28;20355;-72
2021/07/05 20:17:14;;;;;;;4.28;3.35;;;;;;;;;;8326351;28;20366;-71
2021/07/05 20:21:20;;;;;;;4.25;3.10;;;;;;;;;;8324710;28;20324;-73
2021/07/05 20:25:25;;;;;;;5.90;3.22;;;;;;;;;;8323536;28;20486;-71
2021/07/05 20:29:30;;;;;;;6.10;3.72;;;;;;;;;;8324319;28;20470;-71
2021/07/05 20:33:36;;;;;;;4.22;3.25;;;;;;;;;;8325566;28;20493;-71
2021/07/05 20:37:42;;;;;;;3.72;3.03;;;;;;;;;;8323820;28;20487;-71
2021/07/05 20:41:52;;;;;;;8.57;3.42;;;;;;;;;;8325336;28;20080;-70
2021/07/05 20:45:59;;;;;;;6.05;3.80;;;;;;;;;;8327553;28;20351;-70
2021/07/05 20:50:06;;;;;;;6.18;3.88;;;;;;;;;;8323180;28;20337;-70
2021/07/05 20:54:13;;;;;;;6.03;3.63;;;;;;;;;;8325324;28;20366;-71
2021/07/05 20:58:20;;;;;;;9.90;3.72;;;;;;;;;;8324290;28;20471;-71
2021/07/05 21:02:28;;;;;;;8.57;4.10;;;;;;;;;;8323664;28;20044;-71
2021/07/05 21:06:33;;;;;;;8.45;4.22;;;;;;;;;;8324654;28;20378;-73
2021/07/05 21:10:39;;;;;;;8.55;4.07;;;;;;;;;;8324066;28;20479;-70
2021/07/05 21:14:44;;;;;;;10.88;4.10;;;;;;;;;;8324466;28;20474;-71
2021/07/05 21:18:51;;;;;;;7.85;4.38;;;;;;;;;;8323407;28;20467;-71
2021/07/05 21:22:57;;;;;;;7.90;4.30;;;;;;;;;;8325367;28;20066;-71
2021/07/05 21:27:02;;;;;;;6.38;4.10;;;;;;;;;;8324843;28;20044;-71
2021/07/05 21:31:08;;;;;;;9.63;4.95;;;;;;;;;;8322754;28;20347;-71
2021/07/05 21:35:13;;;;;;;7.55;4.10;;;;;;;;;;8323067;28;20048;-71
2021/07/05 21:39:19;;;;;;;7.53;4.72;;;;;;;;;;8323305;28;20048;-70
2021/07/05 21:43:23;;;;;;;7.97;4.57;;;;;;;;;;8324427;28;20439;-70
2021/07/05 21:47:28;;;;;;;8.20;4.78;;;;;;;;;;8323208;28;20421;-72
2021/07/05 21:51:32;;;;;;;8.85;4.65;;;;;;;;;;8321647;28;20052;-71
2021/07/05 21:55:37;;;;;;;9.93;4.95;;;;;;;;;;8322661;28;20447;-71
2021/07/05 21:59:43;;;;;;;8.18;5.22;;;;;;;;;;8320966;28;20052;-71
2021/07/05 22:03:48;;;;;;;11.90;4.63;;;;;;;;;;8322728;28;20479;-70
2021/07/05 22:07:54;;;;;;;7.45;4.90;;;;;;;;;;8320284;28;20379;-70
2021/07/05 22:11:58;;;;;;;8.20;5.38;;;;;;;;;;8322606;28;20385;-70
2021/07/05 22:16:04;;;;;;;9.20;5.25;;;;;;;;;;8325374;28;20473;-70
2021/07/05 22:20:10;;;;;;;12.45;5.60;;;;;;;;;;8321212;28;20066;-70
2021/07/05 22:24:26;;;;;;;7.20;4.80;;;;;;;;;;8322494;28;20413;-70
2021/07/05 22:28:31;;;;;;;12.80;5.65;;;;;;;;;;8322562;28;20473;-70
2021/07/05 22:32:36;;;;;;;9.68;4.45;;;;;;;;;;8331860;28;20062;-70
2021/07/05 22:36:42;;;;;;;8.95;4.70;;;;;;;;;;8329416;28;20347;-70
2021/07/05 22:40:49;;;;;;;7.60;4.80;;;;;;;;;;8327672;28;20370;-70
2021/07/05 22:44:54;;;;;;;8.65;4.95;;;;;;;;;;8327986;28;20485;-70
2021/07/05 22:48:59;;;;;;;7.85;5.03;;;;;;;;;;8327944;28;20071;-70
2021/07/05 22:53:04;;;;;;;7.35;4.95;;;;;;;;;;8329671;28;20459;-70
2021/07/05 22:57:08;;;;;;;7.97;4.90;;;;;;;;;;8330139;28;20044;-70
2021/07/05 23:01:13;;;;;;;10.00;5.18;;;;;;;;;;8328643;28;20512;-70
2021/07/05 23:05:20;;;;;;;9.65;5.20;;;;;;;;;;8310576;28;20378;-70
2021/07/05 23:09:25;;;;;;;10.27;4.87;;;;;;;;;;8328601;28;20505;-70
2021/07/05 23:13:31;;;;;;;9.23;4.75;;;;;;;;;;8326126;28;20079;-70
2021/07/05 23:17:40;;;;;;;10.50;5.13;;;;;;;;;;8327227;28;20062;-70
2021/07/05 23:21:46;;;;;;;7.40;5.05;;;;;;;;;;8327845;28;20079;-70
2021/07/05 23:25:52;;;;;;;8.98;5.00;;;;;;;;;;8309766;28;20358;-70
2021/07/05 23:29:57;;;;;;;8.02;5.10;;;;;;;;;;8311549;28;20508;-70
2021/07/05 23:34:02;;;;;;;9.80;4.95;;;;;;;;;;8328806;28;20048;-70
2021/07/05 23:38:07;;;;;;;7.65;4.63;;;;;;;;;;8326000;28;20032;-70
2021/07/05 23:42:13;;;;;;;9.48;4.40;;;;;;;;;;8309803;28;20390;-70
2021/07/05 23:46:18;;;;;;;6.75;4.70;;;;;;;;;;8325100;28;20479;-70
2021/07/05 23:50:26;;;;;;;6.03;4.47;;;;;;;;;;8326940;28;20067;-70
2021/07/05 23:54:32;;;;;;;10.75;4.93;;;;;;;;;;8326434;28;20520;-71
2021/07/05 23:58:37;;;;;;;8.23;4.55;;;;;;;;;;8326807;28;20478;-70
